This is the latest recevied weather packets stored in our database for station/object OE6CUD-6. If no packets are shown the sender has not sent any weather packets the latest 10 day(s).
| Time | Temp. | Humidity | Pressure | Rain* | Wind** | Luminosity | Snow |
|---|---|---|---|---|---|---|---|
| 1777151437 | 12.78° C | 72% | 1012.8 hPa | 0 mm | - | 0 W/m² | - |
| 1777150043 | 12.78° C | 72% | 1012.9 hPa | 0 mm | - | 0 W/m² | - |
| 1777148821 | 12.78° C | 73% | 1012.7 hPa | 0 mm | - | 0 W/m² | - |
| 1777148221 | 13.33° C | 72% | 1012.7 hPa | 0 mm | - | 0 W/m² | - |
| 1777147002 | 13.89° C | 68% | 1012.7 hPa | 0 mm | - | 0 W/m² | - |
| 1777146090 | 13.89° C | 67% | 1012.5 hPa | 0 mm | - | 0 W/m² | - |
| 1777143352 | 15.56° C | 61% | 1012.3 hPa | 0 mm | - | 0 W/m² | - |
| 1777140600 | 17.22° C | 54% | 1011.7 hPa | 0 mm | - | 0 W/m² | - |
| 1777139223 | 18.89° C | 51% | 1011.5 hPa | 0 mm | - | 9 W/m² | - |
| 1777136938 | 23.33° C | 37% | 1011.6 hPa | 0 mm | - | 19 W/m² | - |
| 1777136332 | 23.89° C | 36% | 1011.7 hPa | 0 mm | - | 98 W/m² | - |
| 1777136028 | 23.89° C | 36% | 1011.7 hPa | 0 mm | - | 111 W/m² | - |
| 1777134823 | 24.44° C | 35% | 1011.7 hPa | 0 mm | - | 183 W/m² | - |
| 1777134220 | 24.44° C | 34% | 1011.8 hPa | 0 mm | - | 153 W/m² | - |
| 1777133798 | 24.44° C | 35% | 1011.8 hPa | 0 mm | - | 257 W/m² | - |
| 1777133793 | 24.44° C | 35% | 1011.7 hPa | 0 mm | - | 185 W/m² | - |
| 1777132709 | 25.56° C | 34% | 1011.9 hPa | 0 mm | - | 288 W/m² | - |
| 1777132098 | 25.56° C | 32% | 1011.9 hPa | 0 mm | - | 320 W/m² | - |
| 1777123314 | 26.11° C | 31% | 1013 hPa | 0 mm | - | 675 W/m² | - |
| 1777121786 | 26.67° C | 30% | 1013.2 hPa | 0 mm | - | 717 W/m² | - |
| 1777120232 | 25.56° C | 32% | 1013.4 hPa | 0 mm | - | 703 W/m² | - |
| 1777119934 | 25.56° C | 34% | 1013.6 hPa | 0 mm | - | 737 W/m² | - |
| 1777119191 | 25.56° C | 36% | 1013.8 hPa | 0 mm | - | 779 W/m² | - |
| 1777117226 | 24.44° C | 33% | 1014.1 hPa | 0 mm | - | 802 W/m² | - |
| 1777114819 | 23.89° C | 37% | 1014.7 hPa | 0 mm | - | 823 W/m² | - |
* Rain latest hour (hover to see other rain measurements)
** Current wind speed in m/s (hover to see current wind gust speed)